»·PEaware :: KLM691 KLAX-KSFO

KLM691 :: KLAX-KSFO

FLIGHT INFORMATION

Flight Status: Arrived
Operator:
KLM
More flights by this operator :: More flights under this callsign
Pilot: Thomas N. (7419)
Aircraft: AIRBUS A330-200
(A332)
More flights by this aircraft type
Origin: KLAX Los Angeles Intl
United States
Destination: KSFO San Francisco Intl
United States
More flights between these airports :: More routes between these airports
Route: +FIXIT2 RZS J501 BSR BSR2
File this flight plan on PilotEdge
Remarks:
Altitude:
(Current/Filed)
34,000ft
Speed:
(Current/Filed)
450kts
Departed: 12-Nov-15 07:19 PM
Arrived: 12-Nov-15 08:10 PM
Distance/Time
Traveled:
293nm/0:51
Distance/Time
To Go:
Arrived

Flight Plot

Page will automatically refresh every two minutes.


Map Options




Map Legend


Flown Route
Filed Route
Departure Airport
Arrival Airport
Navaid (VOR, NDB)
Fix

Horizontal Profiles

Position Reports

Time Latitude Longitude Heading Altitude Ground
Speed
12-Nov-15 18:46 33.942031 -118.403870 263 138ft 0kts
12-Nov-15 18:47 33.942031 -118.403870 263 138ft 0kts
12-Nov-15 18:48 33.942031 -118.403870 263 138ft 0kts
12-Nov-15 18:49 33.942031 -118.403870 263 138ft 0kts
12-Nov-15 18:50 33.942031 -118.403870 263 138ft 0kts
12-Nov-15 18:51 33.942031 -118.403870 263 138ft 0kts
12-Nov-15 18:52 33.942031 -118.403870 263 138ft 0kts
12-Nov-15 18:53 33.942031 -118.403870 263 138ft 0kts
12-Nov-15 18:54 33.942031 -118.403870 263 138ft 0kts
12-Nov-15 18:55 33.942031 -118.403870 263 138ft 0kts
12-Nov-15 18:56 33.942031 -118.403870 263 138ft 0kts
12-Nov-15 18:57 33.942031 -118.403870 263 138ft 0kts
12-Nov-15 18:58 33.942031 -118.403871 263 138ft 0kts
12-Nov-15 18:59 33.942044 -118.403732 263 138ft 0kts
12-Nov-15 19:00 33.942109 -118.403084 263 138ft 0kts
12-Nov-15 19:01 33.942116 -118.403016 263 138ft 0kts
12-Nov-15 19:02 33.942116 -118.403017 263 138ft 0kts
12-Nov-15 19:03 33.941950 -118.403212 202 138ft 3kts
12-Nov-15 19:04 33.941725 -118.403225 170 138ft 0kts
12-Nov-15 19:05 33.941725 -118.403225 170 138ft 0kts
12-Nov-15 19:06 33.940347 -118.403011 174 138ft 12kts
12-Nov-15 19:07 33.939467 -118.401434 81 138ft 19kts
12-Nov-15 19:08 33.940124 -118.395202 81 138ft 4kts
12-Nov-15 19:09 33.940373 -118.392801 84 138ft 12kts
12-Nov-15 19:10 33.940556 -118.390509 89 138ft 5kts
12-Nov-15 19:11 33.940826 -118.387359 80 138ft 17kts
12-Nov-15 19:12 33.941108 -118.384821 83 138ft 15kts
12-Nov-15 19:13 33.940613 -118.382432 89 138ft 8kts
12-Nov-15 19:14 33.940732 -118.380924 93 138ft 0kts
12-Nov-15 19:15 33.940731 -118.380910 94 138ft 1kts
12-Nov-15 19:16 33.939662 -118.381435 260 138ft 31kts
12-Nov-15 19:17 33.934658 -118.423876 262 1918ft 150kts
12-Nov-15 19:18 33.929439 -118.486911 264 2719ft 250kts
12-Nov-15 19:19 33.922138 -118.576108 263 3783ft 269kts
12-Nov-15 19:20 33.917266 -118.667686 268 5384ft 277kts
12-Nov-15 19:21 33.915941 -118.761345 268 6991ft 283kts
12-Nov-15 19:22 33.915300 -118.857137 279 8903ft 290kts
12-Nov-15 19:23 33.953206 -118.944176 299 11053ft 298kts
12-Nov-15 19:24 34.020971 -118.992059 349 13325ft 310kts
12-Nov-15 19:25 34.107952 -119.005537 352 15541ft 321kts
12-Nov-15 19:26 34.172119 -119.073118 301 18004ft 331kts
12-Nov-15 19:27 34.220021 -119.168038 300 20159ft 341kts
12-Nov-15 19:28 34.269401 -119.269046 300 22242ft 363kts
12-Nov-15 19:29 34.323550 -119.380913 299 23075ft 409kts
12-Nov-15 19:30 34.380584 -119.500488 300 24613ft 415kts
12-Nov-15 19:31 34.439612 -119.624192 299 26316ft 430kts
12-Nov-15 19:32 34.500310 -119.751181 302 28168ft 443kts
12-Nov-15 19:33 34.586587 -119.855707 318 30357ft 448kts
12-Nov-15 19:34 34.680047 -119.958904 317 32100ft 461kts
12-Nov-15 19:35 34.776573 -120.066436 318 33166ft 479kts
12-Nov-15 19:36 34.876376 -120.173606 317 34103ft 480kts
12-Nov-15 19:37 34.973751 -120.280599 317 34092ft 471kts
12-Nov-15 19:38 35.056695 -120.372035 317 34091ft 471kts
12-Nov-15 19:39 35.154082 -120.479728 317 34112ft 476kts
12-Nov-15 19:40 35.252133 -120.588534 317 34121ft 479kts
12-Nov-15 19:41 35.350957 -120.699060 316 34121ft 481kts
12-Nov-15 19:42 35.450336 -120.810543 317 34160ft 492kts
12-Nov-15 19:43 35.551442 -120.925075 318 33889ft 497kts
12-Nov-15 19:44 35.652921 -121.040328 318 33141ft 498kts
12-Nov-15 19:45 35.754430 -121.155703 318 31757ft 505kts
12-Nov-15 19:46 35.858071 -121.273660 318 29701ft 500kts
12-Nov-15 19:47 35.958001 -121.387254 319 27620ft 478kts
12-Nov-15 19:48 36.053606 -121.496227 319 25853ft 469kts
12-Nov-15 19:49 36.149247 -121.605666 318 25225ft 453kts
12-Nov-15 19:50 36.226995 -121.686555 329 24283ft 432kts
12-Nov-15 19:51 36.328162 -121.764824 321 23215ft 433kts
12-Nov-15 19:52 36.436039 -121.863095 326 22290ft 384kts
12-Nov-15 19:53 36.513493 -121.901016 353 21395ft 354kts
12-Nov-15 19:54 36.609651 -121.925308 349 20031ft 354kts
12-Nov-15 19:55 36.707954 -121.953784 347 17252ft 370kts
12-Nov-15 19:56 36.807616 -121.981453 348 14455ft 355kts
12-Nov-15 19:57 36.905087 -122.006435 347 12047ft 359kts
12-Nov-15 19:58 36.999505 -122.031276 347 10193ft 325kts
12-Nov-15 19:59 37.079419 -122.052253 348 10208ft 281kts
12-Nov-15 20:00 37.156201 -122.072459 348 10141ft 281kts
12-Nov-15 20:01 37.232535 -122.092627 348 9045ft 281kts
12-Nov-15 20:02 37.308921 -122.112595 348 7961ft 284kts
12-Nov-15 20:03 37.385082 -122.132680 348 6714ft 280kts
12-Nov-15 20:04 37.458522 -122.151985 348 6226ft 269kts
12-Nov-15 20:05 37.531649 -122.171319 343 5437ft 287kts
12-Nov-15 20:06 37.570655 -122.252139 295 3435ft 265kts
12-Nov-15 20:07 37.594733 -122.321215 294 1259ft 195kts
12-Nov-15 20:08 37.616236 -122.369159 297 26ft 32kts
12-Nov-15 20:09 37.616488 -122.372248 209 26ft 0kts
12-Nov-15 20:10 37.616385 -122.372332 214 26ft 5kts
12-Nov-15 20:11 37.617687 -122.376888 290 26ft 31kts
12-Nov-15 20:12 37.618236 -122.380738 212 26ft 3kts

Navigation Log

Ident Type
Flight plan parsing failed, navigation log unavailable